Pilanesberg International Airport

Airport
ICAO code: 
FAPN
IATA Code: 
NTY
Summary
ICAO Region: 
AFI
Territory: 
Location: 
, North-West
Serving: 
Pilanesberg
Elevation: 
3412 ft
Coordinates: 
Aerial View: 
25° 20' 1.759" S, 27° 10' 24.089" E
Metar
Observation
FAPN 210400Z AUTO 24002KT //// // ////// 16/15 Q1022
Station
PILANESBERG
Date/Time
2022-01-21 04:00:00
Wind direction
240°
Wind speed
02 kts
Lowest cloud amount
n/a
Temperature
16°C
Dew point
15°C
Humidity
93%
QNH
1022 hPa
Weather condition
n/a

Runways

Designator Length Width Surface Rops
5/23 2750 30 ASP No/No
Airport map: 
Aerial View: 

SKYbrary Partners:

Safety knowledge contributed by: